Station Historical Data
Daily Summary for April 1, 2017 Units:  Metric    English   Both
« Previous Day
Next Day »
Daily Weekly Monthly Yearly Custom
  High: Low: Average:
Temperature: 7.1 °C 1.6 °C 3.1 °C
Dew Point: 3.2 °C 0 °C 1.2 °C
Humidity: 94% 70% 88%
Wind Speed: 14.5km/h 0km/h 6.1km/h
Wind Gust: 22.5km/h - -
Wind- - SW
Pressure: 1021.6 hPa 1007 hPa -
Precipitation: 0.51 mm    
Historical Graphs
 
 
Tabular Data for April 1, 2017
Time Temperature Dew Point Pressure Wind Wind Speed Wind Gust Humidity Rainfall Rate (Hourly)
00:00 4.2 °C 3.2 °C 1007 hPa NNE 6.4 km/h 11.3 km/h 93% 0.51 mm
00:05 4.1 °C 3.1 °C 1007 hPa NNE 6.4 km/h 9.7 km/h 93% 0.25 mm
00:10 4.1 °C 3 °C 1007 hPa NNE 6.4 km/h 9.7 km/h 93% 0.25 mm
00:15 4.1 °C 3.2 °C 1007 hPa NNE 6.4 km/h 11.3 km/h 94% 0.25 mm
00:20 4.1 °C 3.2 °C 1007 hPa NE 8 km/h 9.7 km/h 94% 0.25 mm
00:25 4.1 °C 3 °C 1007.3 hPa NE 4.8 km/h 8 km/h 93% 0.25 mm
00:30 3.9 °C 2.9 °C 1007.3 hPa NNE 6.4 km/h 11.3 km/h 93% 0.25 mm
00:35 3.9 °C 2.9 °C 1007.3 hPa NNE 4.8 km/h 12.9 km/h 93% 0.25 mm
00:40 3.9 °C 2.8 °C 1007.3 hPa NNE 6.4 km/h 9.7 km/h 93% 0.25 mm
00:45 3.8 °C 2.8 °C 1007.7 hPa North 6.4 km/h 11.3 km/h 93% 0.25 mm
00:50 3.8 °C 2.9 °C 1007.7 hPa North 6.4 km/h 11.3 km/h 94% 0.25 mm
00:55 3.7 °C 2.8 °C 1007.7 hPa NNE 6.4 km/h 14.5 km/h 94% 0.25 mm
01:00 3.7 °C 2.8 °C 1007.7 hPa North 6.4 km/h 14.5 km/h 94% 0.25 mm
01:05 3.7 °C 2.7 °C 1007.7 hPa NNE 6.4 km/h 12.9 km/h 93% 0.25 mm
01:10 3.5 °C 2.5 °C 1008 hPa NNE 8 km/h 14.5 km/h 93% 0.25 mm
01:15 3.4 °C 2.4 °C 1008 hPa NNE 9.7 km/h 14.5 km/h 93% 0.25 mm
01:20 3.3 °C 2.3 °C 1008 hPa NNE 8 km/h 14.5 km/h 93% 0.25 mm
01:25 3.3 °C 2.4 °C 1008 hPa NNE 6.4 km/h 12.9 km/h 94% 0.25 mm
01:30 3.3 °C 2.3 °C 1008 hPa NNE 6.4 km/h 12.9 km/h 93% 0 mm
01:35 3.2 °C 2.2 °C 1008 hPa NNE 6.4 km/h 12.9 km/h 93% 0 mm
01:40 3.2 °C 2.2 °C 1008.4 hPa North 11.3 km/h 11.3 km/h 93% 0 mm
01:45 3.1 °C 2.1 °C 1008.4 hPa NNE 8 km/h 12.9 km/h 93% 0 mm
01:50 3.1 °C 2.2 °C 1008.4 hPa NNE 3.2 km/h 12.9 km/h 94% 0 mm
01:55 3.1 °C 2.1 °C 1008.4 hPa NNE 6.4 km/h 12.9 km/h 93% 0 mm
02:00 3.1 °C 2.1 °C 1008.4 hPa North 9.7 km/h 16.1 km/h 93% 0 mm
02:05 2.9 °C 1.9 °C 1008.4 hPa North 9.7 km/h 12.9 km/h 93% 0 mm
02:10 2.9 °C 1.9 °C 1008.4 hPa North 4.8 km/h 14.5 km/h 93% 0 mm
02:15 2.9 °C 1.9 °C 1008.7 hPa NNE 9.7 km/h 12.9 km/h 93% 0 mm
02:20 2.9 °C 1.9 °C 1008.7 hPa NNE 8 km/h 11.3 km/h 93% 0 mm
02:25 2.9 °C 1.9 °C 1008.7 hPa NNE 6.4 km/h 11.3 km/h 93% 0 mm
02:30 2.9 °C 1.9 °C 1009 hPa NNE 4.8 km/h 9.7 km/h 93% 0 mm
02:35 2.9 °C 1.9 °C 1009 hPa NNE 6.4 km/h 14.5 km/h 93% 0 mm
02:40 2.9 °C 1.9 °C 1009 hPa NNE 6.4 km/h 14.5 km/h 93% 0 mm
02:45 2.9 °C 1.9 °C 1009.4 hPa North 6.4 km/h 12.9 km/h 93% 0 mm
02:50 2.8 °C 1.8 °C 1009.4 hPa North 4.8 km/h 14.5 km/h 93% 0 mm
02:55 2.8 °C 1.9 °C 1009.4 hPa NNE 8 km/h 12.9 km/h 94% 0 mm
03:00 2.8 °C 1.9 °C 1009.4 hPa NNW 4.8 km/h 8 km/h 94% 0 mm
03:05 2.8 °C 1.9 °C 1009.7 hPa NNW 11.3 km/h 19.3 km/h 94% 0 mm
03:10 2.7 °C 1.7 °C 1009.7 hPa North 4.8 km/h 14.5 km/h 93% 0 mm
03:15 2.6 °C 1.6 °C 1009.7 hPa NNE 6.4 km/h 14.5 km/h 93% 0 mm
03:20 2.5 °C 1.5 °C 1009.7 hPa North 4.8 km/h 16.1 km/h 93% 0 mm
03:25 2.4 °C 1.4 °C 1010 hPa NNW 8 km/h 16.1 km/h 93% 0 mm
03:30 2.4 °C 1.4 °C 1010 hPa North 6.4 km/h 16.1 km/h 93% 0 mm
03:35 2.4 °C 1.6 °C 1010 hPa North 6.4 km/h 12.9 km/h 94% 0 mm
03:40 2.4 °C 1.5 °C 1010 hPa North 6.4 km/h 12.9 km/h 94% 0 mm
03:45 2.4 °C 1.5 °C 1010 hPa North 6.4 km/h 16.1 km/h 94% 0 mm
03:50 2.3 °C 1.4 °C 1010.4 hPa North 8 km/h 16.1 km/h 94% 0 mm
03:55 2.3 °C 1.3 °C 1010.4 hPa North 8 km/h 17.7 km/h 93% 0 mm
04:00 2.3 °C 1.3 °C 1010.4 hPa NNW 6.4 km/h 11.3 km/h 93% 0 mm
04:05 2.3 °C 1.3 °C 1010.7 hPa North 6.4 km/h 16.1 km/h 93% 0 mm
04:10 2.2 °C 1.2 °C 1010.7 hPa NE 6.4 km/h 16.1 km/h 93% 0 mm
04:15 2.2 °C 1.2 °C 1010.7 hPa North 8 km/h 14.5 km/h 93% 0 mm
04:20 2.1 °C 1.2 °C 1011.1 hPa NNE 11.3 km/h 12.9 km/h 94% 0 mm
04:25 2 °C 1 °C 1011.1 hPa North 9.7 km/h 17.7 km/h 93% 0 mm
04:30 2.1 °C 1.2 °C 1011.1 hPa North 4.8 km/h 9.7 km/h 94% 0 mm
04:35 2.1 °C 1.2 °C 1011.1 hPa North 6.4 km/h 16.1 km/h 94% 0 mm
04:40 2 °C 1.1 °C 1011.4 hPa North 6.4 km/h 16.1 km/h 94% 0 mm
04:45 2 °C 1.1 °C 1011.4 hPa North 6.4 km/h 12.9 km/h 94% 0 mm
04:50 2 °C 1.1 °C 1011.4 hPa North 4.8 km/h 11.3 km/h 94% 0 mm
04:55 2 °C 1.1 °C 1011.7 hPa North 6.4 km/h 14.5 km/h 94% 0 mm
05:00 1.9 °C 1.1 °C 1011.7 hPa North 9.7 km/h 14.5 km/h 94% 0 mm
05:05 1.9 °C 1 °C 1011.7 hPa North 8 km/h 14.5 km/h 94% 0 mm
05:10 1.9 °C 1 °C 1012.1 hPa North 8 km/h 14.5 km/h 94% 0 mm
05:15 1.9 °C 1 °C 1012.1 hPa NNE 3.2 km/h 11.3 km/h 94% 0 mm
05:20 1.9 °C 1 °C 1012.1 hPa NE 6.4 km/h 8 km/h 94% 0 mm
05:25 1.9 °C 1 °C 1012.4 hPa North 8 km/h 14.5 km/h 94% 0 mm
05:30 1.9 °C 1 °C 1012.4 hPa WNW 8 km/h 14.5 km/h 94% 0 mm
05:35 1.8 °C 0.9 °C 1012.4 hPa North 8 km/h 11.3 km/h 94% 0 mm
05:40 1.8 °C 0.9 °C 1012.8 hPa North 6.4 km/h 17.7 km/h 94% 0 mm
05:45 1.8 °C 0.9 °C 1012.8 hPa North 6.4 km/h 17.7 km/h 94% 0 mm
05:50 1.8 °C 0.9 °C 1012.8 hPa NNE 6.4 km/h 14.5 km/h 94% 0 mm
05:55 1.8 °C 0.9 °C 1012.8 hPa NNE 6.4 km/h 14.5 km/h 94% 0 mm
06:00 1.7 °C 0.8 °C 1013.1 hPa North 6.4 km/h 14.5 km/h 94% 0 mm
06:05 1.8 °C 0.9 °C 1013.1 hPa North 3.2 km/h 11.3 km/h 94% 0 mm
06:10 1.8 °C 0.9 °C 1013.1 hPa NNW 4.8 km/h 11.3 km/h 94% 0 mm
06:15 1.8 °C 0.9 °C 1013.4 hPa North 4.8 km/h 12.9 km/h 94% 0 mm
06:20 1.8 °C 0.9 °C 1013.4 hPa North 4.8 km/h 12.9 km/h 94% 0 mm
06:25 1.8 °C 0.9 °C 1013.4 hPa NNW 3.2 km/h 8 km/h 94% 0 mm
06:30 1.8 °C 0.9 °C 1013.8 hPa NW 3.2 km/h 12.9 km/h 94% 0 mm
06:35 1.8 °C 0.9 °C 1013.8 hPa NNW 4.8 km/h 9.7 km/h 94% 0 mm
06:40 1.8 °C 0.9 °C 1013.8 hPa North 6.4 km/h 9.7 km/h 94% 0 mm
06:45 1.8 °C 0.9 °C 1013.8 hPa NNW 3.2 km/h 8 km/h 94% 0 mm
06:50 1.8 °C 0.9 °C 1013.8 hPa NNW 3.2 km/h 8 km/h 94% 0 mm
06:55 1.8 °C 0.9 °C 1013.8 hPa NNW 3.2 km/h 8 km/h 94% 0 mm
07:00 1.8 °C 0.9 °C 1014.1 hPa North 8 km/h 12.9 km/h 94% 0 mm
07:05 1.8 °C 0.9 °C 1014.1 hPa North 6.4 km/h 11.3 km/h 94% 0 mm
07:10 1.7 °C 0.8 °C 1014.1 hPa NNW 6.4 km/h 8 km/h 94% 0 mm
07:15 1.7 °C 0.8 °C 1014.4 hPa NNW 6.4 km/h 9.7 km/h 94% 0 mm
07:20 1.7 °C 0.8 °C 1014.4 hPa NNW 4.8 km/h 9.7 km/h 94% 0 mm
07:25 1.7 °C 0.8 °C 1014.4 hPa NNW 6.4 km/h 11.3 km/h 94% 0 mm
07:30 1.7 °C 0.8 °C 1014.4 hPa NNW 6.4 km/h 11.3 km/h 94% 0 mm
07:35 1.7 °C 0.7 °C 1014.8 hPa NNW 6.4 km/h 12.9 km/h 93% 0 mm
07:40 1.7 °C 0.7 °C 1014.8 hPa NNW 4.8 km/h 9.7 km/h 93% 0 mm
07:45 1.7 °C 0.8 °C 1014.8 hPa North 8 km/h 11.3 km/h 94% 0 mm
07:50 1.7 °C 0.7 °C 1014.8 hPa North 6.4 km/h 11.3 km/h 93% 0 mm
07:55 1.8 °C 0.9 °C 1015.1 hPa North 4.8 km/h 11.3 km/h 94% 0 mm
08:00 1.8 °C 0.8 °C 1015.1 hPa North 4.8 km/h 9.7 km/h 93% 0 mm
08:05 1.8 °C 0.8 °C 1015.1 hPa NNW 3.2 km/h 9.7 km/h 93% 0 mm
08:10 1.9 °C 0.9 °C 1015.1 hPa NNW 4.8 km/h 11.3 km/h 93% 0.25 mm
08:15 1.8 °C 0.8 °C 1015.1 hPa NW 4.8 km/h 9.7 km/h 93% 0.25 mm
08:20 1.9 °C 0.9 °C 1015.5 hPa NNW 4.8 km/h 8 km/h 93% 0.25 mm
08:25 1.9 °C 0.9 °C 1015.5 hPa North 4.8 km/h 9.7 km/h 93% 0.25 mm
08:30 1.9 °C 0.9 °C 1015.5 hPa North 4.8 km/h 9.7 km/h 93% 0.25 mm
08:35 1.9 °C 1.1 °C 1015.5 hPa NNW 4.8 km/h 12.9 km/h 94% 0.25 mm
08:40 2 °C 1 °C 1015.5 hPa NNW 4.8 km/h 12.9 km/h 93% 0.25 mm
08:45 2 °C 1 °C 1015.5 hPa North 4.8 km/h 9.7 km/h 93% 0.25 mm
08:50 2 °C 1 °C 1015.8 hPa NNW 6.4 km/h 8 km/h 93% 0.25 mm
08:55 2 °C 1 °C 1015.8 hPa NW 4.8 km/h 8 km/h 93% 0.25 mm
09:00 2 °C 1 °C 1015.8 hPa NNW 3.2 km/h 8 km/h 93% 0.25 mm
09:05 2.1 °C 1.1 °C 1015.8 hPa NNW 4.8 km/h 11.3 km/h 93% 0.25 mm
09:10 2 °C 1 °C 1015.8 hPa NNW 4.8 km/h 11.3 km/h 93% 0 mm
09:15 2.1 °C 1.1 °C 1016.1 hPa North 1.6 km/h 6.4 km/h 93% 0 mm
09:20 2.1 °C 1.1 °C 1016.1 hPa North 4.8 km/h 14.5 km/h 93% 0 mm
09:25 2.1 °C 1.1 °C 1016.1 hPa NNW 6.4 km/h 9.7 km/h 93% 0 mm
09:30 2.1 °C 1.1 °C 1016.5 hPa NW 4.8 km/h 9.7 km/h 93% 0 mm
09:35 2.2 °C 1.2 °C 1016.5 hPa NNW 4.8 km/h 9.7 km/h 93% 0 mm
09:40 2.1 °C 1.1 °C 1016.5 hPa NNW 4.8 km/h 9.7 km/h 93% 0 mm
09:45 2.1 °C 1.1 °C 1016.8 hPa NNW 4.8 km/h 14.5 km/h 93% 0 mm
09:50 2.2 °C 1.2 °C 1016.8 hPa NNW 4.8 km/h 14.5 km/h 93% 0 mm
09:55 2.2 °C 1.2 °C 1016.8 hPa NNW 3.2 km/h 11.3 km/h 93% 0 mm
10:00 2.2 °C 1.2 °C 1016.8 hPa NNW 9.7 km/h 12.9 km/h 93% 0 mm
10:05 2.1 °C 1.1 °C 1016.8 hPa NW 6.4 km/h 14.5 km/h 93% 0 mm
10:10 2.1 °C 1.1 °C 1017.2 hPa NW 6.4 km/h 14.5 km/h 93% 0 mm
10:15 2.1 °C 1.1 °C 1017.2 hPa North 8 km/h 8 km/h 93% 0 mm
10:20 2.1 °C 1.1 °C 1017.2 hPa NNW 4.8 km/h 9.7 km/h 93% 0 mm
10:25 2.2 °C 1.2 °C 1017.5 hPa NW 4.8 km/h 14.5 km/h 93% 0 mm
10:30 2.2 °C 1.2 °C 1017.5 hPa NW 3.2 km/h 12.9 km/h 93% 0 mm
10:35 2.2 °C 1.2 °C 1017.5 hPa NW 1.6 km/h 12.9 km/h 93% 0 mm
10:40 2.3 °C 1.3 °C 1017.5 hPa WNW 4.8 km/h 12.9 km/h 93% 0 mm
10:45 2.3 °C 1.2 °C 1017.5 hPa WNW 3.2 km/h 8 km/h 92% 0 mm
10:50 2.3 °C 1.1 °C 1017.8 hPa NW 4.8 km/h 11.3 km/h 92% 0 mm
10:55 2.2 °C 1.1 °C 1017.8 hPa NW 4.8 km/h 12.9 km/h 92% 0 mm
11:00 2.2 °C 1.1 °C 1017.5 hPa NW 4.8 km/h 9.7 km/h 92% 0 mm
11:05 2.3 °C 1.1 °C 1017.8 hPa NNW 9.7 km/h 9.7 km/h 92% 0 mm
11:10 2.2 °C 1 °C 1017.5 hPa NW 4.8 km/h 11.3 km/h 92% 0 mm
11:15 2.2 °C 1.1 °C 1017.5 hPa NW 4.8 km/h 11.3 km/h 92% 0 mm
11:20 2.3 °C 1.1 °C 1017.5 hPa WNW 4.8 km/h 11.3 km/h 92% 0 mm
11:25 2.2 °C 1.1 °C 1017.5 hPa NW 6.4 km/h 12.9 km/h 92% 0 mm
11:30 2.3 °C 1.1 °C 1017.5 hPa NNW 6.4 km/h 12.9 km/h 92% 0 mm
11:35 2.3 °C 1.1 °C 1017.8 hPa WNW 8 km/h 11.3 km/h 92% 0 mm
11:40 2.3 °C 1 °C 1017.5 hPa NW 1.6 km/h 12.9 km/h 91% 0 mm
11:45 2.5 °C 1.3 °C 1017.5 hPa WNW 6.4 km/h 14.5 km/h 92% 0 mm
11:50 2.6 °C 1.3 °C 1017.5 hPa WNW 6.4 km/h 14.5 km/h 91% 0 mm
11:55 2.6 °C 1.2 °C 1017.5 hPa NW 6.4 km/h 14.5 km/h 91% 0 mm
12:00 2.7 °C 1.3 °C 1017.5 hPa NW 6.4 km/h 14.5 km/h 91% 0 mm
12:05 2.7 °C 1.2 °C 1017.8 hPa WNW 3.2 km/h 11.3 km/h 90% 0 mm
12:10 2.8 °C 1.3 °C 1017.8 hPa NNW 3.2 km/h 8 km/h 90% 0 mm
12:15 2.7 °C 1.2 °C 1017.8 hPa NNW 4.8 km/h 12.9 km/h 90% 0 mm
12:20 2.8 °C 1.3 °C 1017.8 hPa NNW 4.8 km/h 12.9 km/h 90% 0 mm
12:25 3 °C 1.4 °C 1017.8 hPa NW 4.8 km/h 11.3 km/h 89% 0 mm
12:30 3 °C 1.4 °C 1017.8 hPa NW 6.4 km/h 12.9 km/h 89% 0 mm
12:35 3.1 °C 1.4 °C 1017.8 hPa West 4.8 km/h 9.7 km/h 89% 0 mm
12:45 3.1 °C 1.3 °C 1017.8 hPa NNW 1.6 km/h 14.5 km/h 88% 0 mm
12:50 3.2 °C 1.4 °C 1017.8 hPa North 8 km/h 14.5 km/h 88% 0 mm
12:55 3.1 °C 1.3 °C 1017.8 hPa NW 6.4 km/h 16.1 km/h 88% 0 mm
13:00 3.1 °C 1.3 °C 1017.5 hPa NW 6.4 km/h 16.1 km/h 88% 0 mm
13:05 3.2 °C 1.4 °C 1017.5 hPa NW 6.4 km/h 12.9 km/h 88% 0 mm
13:10 3.5 °C 1.7 °C 1017.5 hPa NW 4.8 km/h 12.9 km/h 88% 0 mm
13:15 3.8 °C 1.9 °C 1017.8 hPa WNW 4.8 km/h 12.9 km/h 87% 0 mm
13:20 3.8 °C 1.7 °C 1017.8 hPa West 6.4 km/h 14.5 km/h 86% 0 mm
13:25 4.1 °C 1.9 °C 1018.2 hPa WNW 6.4 km/h 14.5 km/h 86% 0 mm
13:30 4 °C 1.7 °C 1018.2 hPa WNW 6.4 km/h 11.3 km/h 85% 0 mm
13:35 4.1 °C 1.6 °C 1018.2 hPa NW 6.4 km/h 12.9 km/h 84% 0 mm
13:40 4.2 °C 1.7 °C 1018.2 hPa West 6.4 km/h 12.9 km/h 84% 0 mm
13:45 4.1 °C 1.8 °C 1018.2 hPa NW 4.8 km/h 11.3 km/h 85% 0 mm
13:50 4 °C 1.7 °C 1018.2 hPa WNW 14.5 km/h 16.1 km/h 85% 0 mm
13:55 3.8 °C 1.3 °C 1018.5 hPa WNW 3.2 km/h 14.5 km/h 84% 0 mm
14:00 3.9 °C 1.5 °C 1018.5 hPa WNW 8 km/h 16.1 km/h 84% 0 mm
14:05 3.9 °C 1.5 °C 1018.5 hPa WNW 8 km/h 16.1 km/h 84% 0 mm
14:10 3.9 °C 1.3 °C 1018.2 hPa NW 6.4 km/h 14.5 km/h 83% 0 mm
14:15 4.1 °C 1.4 °C 1018.2 hPa NW 6.4 km/h 14.5 km/h 83% 0 mm
14:20 4.1 °C 1.5 °C 1018.2 hPa WNW 8 km/h 12.9 km/h 83% 0 mm
14:25 4.1 °C 1.3 °C 1018.2 hPa NW 1.6 km/h 12.9 km/h 82% 0 mm
14:30 4.1 °C 1.1 °C 1018.2 hPa NW 6.4 km/h 12.9 km/h 81% 0 mm
14:35 4.3 °C 1.5 °C 1018.2 hPa NW 6.4 km/h 12.9 km/h 82% 0 mm
14:40 4.3 °C 1.3 °C 1018.5 hPa NW 6.4 km/h 12.9 km/h 81% 0 mm
14:45 4.4 °C 1.6 °C 1018.5 hPa North 3.2 km/h 11.3 km/h 82% 0 mm
14:50 4.6 °C 1.7 °C 1018.5 hPa WNW 6.4 km/h 9.7 km/h 82% 0 mm
14:55 4.4 °C 1.3 °C 1018.2 hPa WNW 4.8 km/h 14.5 km/h 80% 0 mm
15:00 4.7 °C 1.6 °C 1018.2 hPa NNW 4.8 km/h 11.3 km/h 80% 0 mm
15:05 4.8 °C 1.3 °C 1018.2 hPa NNW 6.4 km/h 12.9 km/h 78% 0 mm
15:10 4.8 °C 1.3 °C 1018.2 hPa NNW 6.4 km/h 12.9 km/h 78% 0 mm
15:15 4.7 °C 1.2 °C 1018.2 hPa NNW 6.4 km/h 11.3 km/h 78% 0 mm
15:20 4.6 °C 1.1 °C 1018.5 hPa NW 4.8 km/h 12.9 km/h 78% 0 mm
15:25 4.6 °C 1.1 °C 1018.5 hPa NNW 4.8 km/h 16.1 km/h 78% 0 mm
15:30 4.7 °C 1.2 °C 1018.5 hPa North 4.8 km/h 11.3 km/h 78% 0 mm
15:35 4.8 °C 1.3 °C 1018.5 hPa NNE 11.3 km/h 11.3 km/h 78% 0 mm
15:40 4.9 °C 1.4 °C 1018.5 hPa NNW 6.4 km/h 11.3 km/h 78% 0 mm
15:45 4.9 °C 1.1 °C 1018.5 hPa NW 6.4 km/h 9.7 km/h 76% 0 mm
15:50 5.1 °C 1.2 °C 1018.5 hPa NW 4.8 km/h 11.3 km/h 76% 0 mm
15:55 5.3 °C 1.6 °C 1018.5 hPa WNW 3.2 km/h 8 km/h 77% 0 mm
16:00 5.2 °C 1.2 °C 1018.5 hPa WNW 3.2 km/h 11.3 km/h 75% 0 mm
16:05 5.4 °C 1.6 °C 1018.5 hPa West 9.7 km/h 11.3 km/h 76% 0 mm
16:10 5.5 °C 1.4 °C 1018.5 hPa WNW 4.8 km/h 11.3 km/h 75% 0 mm
16:15 5.3 °C 1.1 °C 1018.5 hPa WNW 4.8 km/h 12.9 km/h 74% 0 mm
16:20 5.4 °C 1.3 °C 1018.8 hPa WNW 4.8 km/h 12.9 km/h 75% 0 mm
16:25 5.4 °C 1.2 °C 1018.8 hPa NW 4.8 km/h 12.9 km/h 74% 0 mm
16:30 5.4 °C 1.2 °C 1018.8 hPa WNW 6.4 km/h 11.3 km/h 74% 0 mm
16:35 5.5 °C 1.2 °C 1019.2 hPa NNW 11.3 km/h 12.9 km/h 74% 0 mm
16:40 5.6 °C 1.3 °C 1019.2 hPa WNW 3.2 km/h 12.9 km/h 74% 0 mm
16:45 5.7 °C 1.2 °C 1019.5 hPa WNW 6.4 km/h 14.5 km/h 73% 0 mm
16:50 5.6 °C 1.3 °C 1019.5 hPa West 6.4 km/h 14.5 km/h 74% 0 mm
16:55 5.6 °C 1.3 °C 1019.5 hPa West 6.4 km/h 14.5 km/h 74% 0 mm
17:00 5.7 °C 1.2 °C 1019.5 hPa WNW 6.4 km/h 11.3 km/h 73% 0 mm
17:05 5.8 °C 1.6 °C 1019.9 hPa West 8 km/h 11.3 km/h 74% 0 mm
17:10 5.8 °C 1.6 °C 1019.5 hPa West 4.8 km/h 14.5 km/h 74% 0 mm
17:15 5.9 °C 1.4 °C 1019.5 hPa West 6.4 km/h 14.5 km/h 73% 0 mm
17:20 6.3 °C 2 °C 1019.5 hPa West 4.8 km/h 14.5 km/h 74% 0 mm
17:25 6.3 °C 1.6 °C 1019.5 hPa West 6.4 km/h 12.9 km/h 72% 0 mm
17:30 6.4 °C 1.9 °C 1019.5 hPa West 8 km/h 12.9 km/h 73% 0 mm
17:35 6.7 °C 1.8 °C 1019.5 hPa Calm   11.3 km/h 71% 0 mm
17:40 6.9 °C 2.2 °C 1019.5 hPa WNW 3.2 km/h 9.7 km/h 72% 0 mm
17:45 7.1 °C 2 °C 1019.5 hPa WNW 4.8 km/h 9.7 km/h 70% 0 mm
17:50 6.6 °C 1.9 °C 1019.5 hPa WSW 4.8 km/h 12.9 km/h 72% 0 mm
17:55 5.9 °C 2 °C 1019.5 hPa SW 6.4 km/h 16.1 km/h 76% 0 mm
18:00 5.3 °C 1.4 °C 1019.5 hPa SW 8 km/h 16.1 km/h 76% 0 mm
18:05 5.1 °C 1.6 °C 1019.5 hPa WSW 11.3 km/h 19.3 km/h 78% 0 mm
18:10 4.9 °C 1.4 °C 1019.5 hPa SW 11.3 km/h 14.5 km/h 78% 0 mm
18:15 4.9 °C 1.4 °C 1019.5 hPa SW 9.7 km/h 14.5 km/h 78% 0 mm
18:20 4.7 °C 1.2 °C 1019.5 hPa SW 8 km/h 14.5 km/h 78% 0 mm
18:25 4.5 °C 1 °C 1019.5 hPa SW 9.7 km/h 17.7 km/h 78% 0 mm
18:30 4.5 °C 1.3 °C 1019.5 hPa SW 8 km/h 17.7 km/h 80% 0 mm
18:35 4.5 °C 1.2 °C 1019.9 hPa SW 9.7 km/h 16.1 km/h 79% 0 mm
18:40 4.3 °C 1 °C 1019.5 hPa SSW 6.4 km/h 14.5 km/h 79% 0 mm
18:45 4.2 °C 0.9 °C 1019.5 hPa WSW 4.8 km/h 17.7 km/h 79% 0 mm
18:50 4.2 °C 1 °C 1019.5 hPa WSW 8 km/h 17.7 km/h 80% 0 mm
18:55 4.3 °C 1.1 °C 1019.9 hPa SW 8 km/h 16.1 km/h 80% 0 mm
19:00 4.3 °C 0.9 °C 1019.9 hPa WSW 8 km/h 16.1 km/h 79% 0 mm
19:05 4.2 °C 0.8 °C 1019.9 hPa WSW 8 km/h 16.1 km/h 79% 0 mm
19:10 4.1 °C 0.7 °C 1019.9 hPa WSW 9.7 km/h 19.3 km/h 79% 0 mm
19:15 3.9 °C 0.6 °C 1020.2 hPa SW 9.7 km/h 19.3 km/h 79% 0 mm
19:20 3.8 °C 0.7 °C 1020.2 hPa SW 3.2 km/h 16.1 km/h 80% 0 mm
19:25 3.7 °C 0.7 °C 1020.2 hPa WSW 11.3 km/h 19.3 km/h 81% 0 mm
19:30 3.6 °C 0.6 °C 1020.2 hPa SSW 6.4 km/h 22.5 km/h 81% 0 mm
19:35 3.4 °C 0.6 °C 1020.2 hPa SW 8 km/h 14.5 km/h 82% 0 mm
19:40 3.3 °C 0.5 °C 1020.2 hPa West 11.3 km/h 14.5 km/h 82% 0 mm
19:45 3.2 °C 0.4 °C 1020.2 hPa WSW 6.4 km/h 17.7 km/h 82% 0 mm
19:50 3.1 °C 0.4 °C 1020.2 hPa SW 9.7 km/h 16.1 km/h 83% 0 mm
19:55 3 °C 0.4 °C 1020.2 hPa West 4.8 km/h 17.7 km/h 83% 0 mm
20:00 2.8 °C 0.4 °C 1020.2 hPa WSW 8 km/h 17.7 km/h 84% 0 mm
20:05 2.8 °C 0.3 °C 1020.5 hPa WSW 8 km/h 17.7 km/h 84% 0 mm
20:10 2.7 °C 0.3 °C 1020.5 hPa WSW 8 km/h 17.7 km/h 84% 0 mm
20:15 2.7 °C 0.4 °C 1020.5 hPa WSW 8 km/h 16.1 km/h 85% 0 mm
20:20 2.6 °C 0.3 °C 1020.5 hPa WSW 8 km/h 14.5 km/h 85% 0 mm
20:25 2.6 °C 0.3 °C 1020.9 hPa WSW 9.7 km/h 20.9 km/h 85% 0 mm
20:30 2.6 °C 0.3 °C 1020.9 hPa WSW 9.7 km/h 20.9 km/h 85% 0 mm
20:35 2.6 °C 0.3 °C 1020.9 hPa West 6.4 km/h 17.7 km/h 85% 0 mm
20:40 2.5 °C 0.2 °C 1020.9 hPa West 9.7 km/h 17.7 km/h 85% 0 mm
20:45 2.6 °C 0.4 °C 1020.9 hPa West 12.9 km/h 17.7 km/h 86% 0 mm
20:50 2.5 °C 0.2 °C 1020.9 hPa SSW 8 km/h 17.7 km/h 85% 0 mm
20:55 2.4 °C 0.2 °C 1020.9 hPa SW 4.8 km/h 11.3 km/h 85% 0 mm
21:00 2.4 °C 0.3 °C 1020.9 hPa WSW 6.4 km/h 12.9 km/h 86% 0 mm
21:05 2.3 °C 0.2 °C 1020.9 hPa WSW 6.4 km/h 12.9 km/h 86% 0 mm
21:10 2.3 °C 0.2 °C 1021.2 hPa WSW 6.4 km/h 14.5 km/h 86% 0 mm
21:15 2.4 °C 0.3 °C 1021.2 hPa WSW 8 km/h 14.5 km/h 86% 0 mm
21:20 2.3 °C 0.2 °C 1021.2 hPa WSW 8 km/h 14.5 km/h 86% 0 mm
21:25 2.3 °C 0.2 °C 1021.2 hPa WSW 8 km/h 19.3 km/h 86% 0 mm
21:30 2.3 °C 0.2 °C 1021.2 hPa WSW 4.8 km/h 16.1 km/h 86% 0 mm
21:35 2.3 °C 0.2 °C 1021.2 hPa SW 9.7 km/h 12.9 km/h 86% 0 mm
21:40 2.3 °C 0.2 °C 1021.2 hPa WSW 4.8 km/h 16.1 km/h 86% 0 mm
21:45 2.3 °C 0.2 °C 1021.2 hPa SW 8 km/h 11.3 km/h 86% 0 mm
21:50 2.2 °C 0.1 °C 1021.6 hPa SW 3.2 km/h 9.7 km/h 86% 0 mm
21:55 2.1 °C 0 °C 1021.2 hPa SW 4.8 km/h 12.9 km/h 86% 0 mm
22:00 2.1 °C 0.1 °C 1021.6 hPa SSE 3.2 km/h 9.7 km/h 87% 0 mm
22:05 2 °C 0.1 °C 1021.6 hPa SW 4.8 km/h 9.7 km/h 87% 0 mm
22:10 2 °C 0.2 °C 1021.6 hPa SW 4.8 km/h 9.7 km/h 88% 0 mm
22:15 1.9 °C 0.2 °C 1021.6 hPa SW 4.8 km/h 9.7 km/h 88% 0 mm
22:20 1.9 °C 0.2 °C 1021.6 hPa SW 4.8 km/h 9.7 km/h 88% 0 mm
22:25 1.9 °C 0.2 °C 1021.6 hPa SW 4.8 km/h 11.3 km/h 88% 0 mm
22:30 1.9 °C 0.2 °C 1021.6 hPa SW 4.8 km/h 11.3 km/h 88% 0 mm
22:35 1.9 °C 0.2 °C 1021.6 hPa SW 3.2 km/h 8 km/h 88% 0 mm
22:40 1.9 °C 0.3 °C 1021.6 hPa SW 4.8 km/h 8 km/h 89% 0 mm
22:45 1.9 °C 0.3 °C 1021.6 hPa SW 4.8 km/h 11.3 km/h 89% 0 mm
22:50 2 °C 0.4 °C 1021.6 hPa SW 4.8 km/h 9.7 km/h 89% 0 mm
22:55 2.1 °C 0.4 °C 1021.6 hPa WSW 6.4 km/h 14.5 km/h 89% 0 mm
23:00 2.1 °C 0.3 °C 1021.6 hPa SW 3.2 km/h 9.7 km/h 88% 0 mm
23:05 2 °C 0.4 °C 1021.6 hPa SW 4.8 km/h 4.8 km/h 89% 0 mm
23:10 2 °C 0.4 °C 1021.6 hPa WSW 3.2 km/h 8 km/h 89% 0 mm
23:15 1.9 °C 0.3 °C 1021.2 hPa SW 3.2 km/h 8 km/h 89% 0 mm
23:20 2 °C 0.4 °C 1021.6 hPa SW 3.2 km/h 8 km/h 89% 0 mm
23:25 2 °C 0.4 °C 1021.6 hPa SW 3.2 km/h 8 km/h 89% 0 mm
23:30 2 °C 0.4 °C 1021.6 hPa SW 1.6 km/h 6.4 km/h 89% 0 mm
23:35 1.9 °C 0.3 °C 1021.6 hPa SW 3.2 km/h 6.4 km/h 89% 0 mm
23:40 2 °C 0.4 °C 1021.6 hPa SW 3.2 km/h 6.4 km/h 89% 0 mm
23:45 1.9 °C 0.3 °C 1021.6 hPa SW 3.2 km/h 6.4 km/h 89% 0 mm
23:49 1.7 °C 0.1 °C 1021.6 hPa SW 1.6 km/h 4.8 km/h 89% 0 mm
23:55 1.6 °C 0 °C 1021.6 hPa SW 1.6 km/h 4.8 km/h 89% 0 mm
Buffalo, New York, USA
Compliments of Weather Underground - 2.5 mb